sensor_id;sensor_type;location;lat;lon;timestamp;temperature;humidity
7900;DHT22;3995;50.856;4.404;2023-05-07T00:00:34;20.40;59.20
7900;DHT22;3995;50.856;4.404;2023-05-07T00:03:02;20.40;59.30
7900;DHT22;3995;50.856;4.404;2023-05-07T00:05:31;20.40;59.30
7900;DHT22;3995;50.856;4.404;2023-05-07T00:07:58;20.40;59.40
7900;DHT22;3995;50.856;4.404;2023-05-07T00:10:25;20.40;59.40
7900;DHT22;3995;50.856;4.404;2023-05-07T00:12:52;20.40;59.50
7900;DHT22;3995;50.856;4.404;2023-05-07T00:15:20;20.40;59.60
7900;DHT22;3995;50.856;4.404;2023-05-07T00:17:47;20.40;59.60
7900;DHT22;3995;50.856;4.404;2023-05-07T00:20:14;20.40;59.60
7900;DHT22;3995;50.856;4.404;2023-05-07T00:22:43;20.40;59.60
7900;DHT22;3995;50.856;4.404;2023-05-07T00:25:10;20.40;59.60
7900;DHT22;3995;50.856;4.404;2023-05-07T00:27:37;20.40;59.60
7900;DHT22;3995;50.856;4.404;2023-05-07T00:30:07;20.40;59.60
7900;DHT22;3995;50.856;4.404;2023-05-07T00:32:34;20.40;59.60
7900;DHT22;3995;50.856;4.404;2023-05-07T00:35:02;20.30;59.60
7900;DHT22;3995;50.856;4.404;2023-05-07T00:37:29;20.30;59.60
7900;DHT22;3995;50.856;4.404;2023-05-07T00:39:58;20.30;59.60
7900;DHT22;3995;50.856;4.404;2023-05-07T00:42:25;20.40;59.70
7900;DHT22;3995;50.856;4.404;2023-05-07T00:44:53;20.30;59.70
7900;DHT22;3995;50.856;4.404;2023-05-07T00:47:20;20.30;59.70
7900;DHT22;3995;50.856;4.404;2023-05-07T00:49:47;20.30;59.70
7900;DHT22;3995;50.856;4.404;2023-05-07T00:52:16;20.30;59.70
7900;DHT22;3995;50.856;4.404;2023-05-07T00:54:44;20.30;59.60
7900;DHT22;3995;50.856;4.404;2023-05-07T00:57:13;20.30;59.60
7900;DHT22;3995;50.856;4.404;2023-05-07T00:59:41;20.30;59.80
7900;DHT22;3995;50.856;4.404;2023-05-07T01:02:09;20.30;59.70
7900;DHT22;3995;50.856;4.404;2023-05-07T01:04:37;20.30;59.60
7900;DHT22;3995;50.856;4.404;2023-05-07T01:07:05;20.30;59.60
7900;DHT22;3995;50.856;4.404;2023-05-07T01:09:32;20.30;59.40
7900;DHT22;3995;50.856;4.404;2023-05-07T01:12:01;20.30;59.40
7900;DHT22;3995;50.856;4.404;2023-05-07T01:14:30;20.30;59.40
7900;DHT22;3995;50.856;4.404;2023-05-07T01:16:58;20.30;59.60
7900;DHT22;3995;50.856;4.404;2023-05-07T01:19:26;20.30;59.60
7900;DHT22;3995;50.856;4.404;2023-05-07T01:21:56;20.30;59.60
7900;DHT22;3995;50.856;4.404;2023-05-07T01:24:30;20.30;59.60
7900;DHT22;3995;50.856;4.404;2023-05-07T01:26:57;20.30;59.50
7900;DHT22;3995;50.856;4.404;2023-05-07T01:29:25;20.30;59.50
7900;DHT22;3995;50.856;4.404;2023-05-07T01:31:52;20.30;59.60
7900;DHT22;3995;50.856;4.404;2023-05-07T01:34:21;20.30;60.10
7900;DHT22;3995;50.856;4.404;2023-05-07T01:36:49;20.30;59.50
7900;DHT22;3995;50.856;4.404;2023-05-07T01:39:16;20.20;59.50
7900;DHT22;3995;50.856;4.404;2023-05-07T01:41:45;20.20;59.40
7900;DHT22;3995;50.856;4.404;2023-05-07T01:44:13;20.20;59.20
7900;DHT22;3995;50.856;4.404;2023-05-07T01:46:40;20.20;59.10
7900;DHT22;3995;50.856;4.404;2023-05-07T01:49:07;20.20;59.00
7900;DHT22;3995;50.856;4.404;2023-05-07T01:51:35;20.20;59.00
7900;DHT22;3995;50.856;4.404;2023-05-07T01:54:03;20.20;59.00
7900;DHT22;3995;50.856;4.404;2023-05-07T01:56:31;20.20;59.00
7900;DHT22;3995;50.856;4.404;2023-05-07T01:58:59;20.20;59.10
7900;DHT22;3995;50.856;4.404;2023-05-07T02:01:27;20.20;59.00
7900;DHT22;3995;50.856;4.404;2023-05-07T02:03:54;20.20;59.00
7900;DHT22;3995;50.856;4.404;2023-05-07T02:06:22;20.20;59.00
7900;DHT22;3995;50.856;4.404;2023-05-07T02:08:49;20.20;59.00
7900;DHT22;3995;50.856;4.404;2023-05-07T02:11:16;20.20;59.00
7900;DHT22;3995;50.856;4.404;2023-05-07T02:13:44;20.10;58.70
7900;DHT22;3995;50.856;4.404;2023-05-07T02:16:12;20.20;58.60
7900;DHT22;3995;50.856;4.404;2023-05-07T02:18:40;20.20;58.50
7900;DHT22;3995;50.856;4.404;2023-05-07T02:21:07;20.10;58.30
7900;DHT22;3995;50.856;4.404;2023-05-07T02:23:34;20.10;58.20
7900;DHT22;3995;50.856;4.404;2023-05-07T02:26:01;20.10;58.30
7900;DHT22;3995;50.856;4.404;2023-05-07T02:28:28;20.10;58.30
7900;DHT22;3995;50.856;4.404;2023-05-07T02:30:55;20.10;58.20
7900;DHT22;3995;50.856;4.404;2023-05-07T02:33:25;20.10;58.20
7900;DHT22;3995;50.856;4.404;2023-05-07T02:35:53;20.10;58.20
7900;DHT22;3995;50.856;4.404;2023-05-07T02:38:20;20.10;58.20
7900;DHT22;3995;50.856;4.404;2023-05-07T02:40:47;20.00;58.20
7900;DHT22;3995;50.856;4.404;2023-05-07T02:43:14;20.10;58.30
7900;DHT22;3995;50.856;4.404;2023-05-07T02:45:41;20.10;58.40
7900;DHT22;3995;50.856;4.404;2023-05-07T02:48:09;20.10;58.50
7900;DHT22;3995;50.856;4.404;2023-05-07T02:50:37;20.10;58.60
7900;DHT22;3995;50.856;4.404;2023-05-07T02:53:04;20.10;58.70
7900;DHT22;3995;50.856;4.404;2023-05-07T02:55:32;20.00;58.60
7900;DHT22;3995;50.856;4.404;2023-05-07T02:57:59;20.00;58.60
7900;DHT22;3995;50.856;4.404;2023-05-07T03:00:26;20.00;58.60
7900;DHT22;3995;50.856;4.404;2023-05-07T03:02:53;20.00;58.60
7900;DHT22;3995;50.856;4.404;2023-05-07T03:05:21;20.00;58.70
7900;DHT22;3995;50.856;4.404;2023-05-07T03:07:50;20.00;58.90
7900;DHT22;3995;50.856;4.404;2023-05-07T03:10:17;20.00;59.00
7900;DHT22;3995;50.856;4.404;2023-05-07T03:12:44;20.00;59.10
7900;DHT22;3995;50.856;4.404;2023-05-07T03:15:11;20.00;59.10
7900;DHT22;3995;50.856;4.404;2023-05-07T03:17:39;20.00;59.20
7900;DHT22;3995;50.856;4.404;2023-05-07T03:20:07;20.00;59.20
7900;DHT22;3995;50.856;4.404;2023-05-07T03:22:34;20.00;59.30
7900;DHT22;3995;50.856;4.404;2023-05-07T03:25:04;19.90;59.20
7900;DHT22;3995;50.856;4.404;2023-05-07T03:27:31;20.00;59.30
7900;DHT22;3995;50.856;4.404;2023-05-07T03:29:58;19.90;59.10
7900;DHT22;3995;50.856;4.404;2023-05-07T03:32:25;19.90;59.10
7900;DHT22;3995;50.856;4.404;2023-05-07T03:34:52;20.00;59.10
7900;DHT22;3995;50.856;4.404;2023-05-07T03:37:19;19.90;59.10
7900;DHT22;3995;50.856;4.404;2023-05-07T03:39:47;19.90;59.00
7900;DHT22;3995;50.856;4.404;2023-05-07T03:42:16;19.90;58.90
7900;DHT22;3995;50.856;4.404;2023-05-07T03:44:43;19.90;58.80
7900;DHT22;3995;50.856;4.404;2023-05-07T03:47:10;19.90;58.90
7900;DHT22;3995;50.856;4.404;2023-05-07T03:49:38;19.90;58.90
7900;DHT22;3995;50.856;4.404;2023-05-07T03:52:06;19.90;58.90
7900;DHT22;3995;50.856;4.404;2023-05-07T03:54:33;19.90;58.90
7900;DHT22;3995;50.856;4.404;2023-05-07T03:57:00;19.90;58.90
7900;DHT22;3995;50.856;4.404;2023-05-07T03:59:29;19.90;58.90
7900;DHT22;3995;50.856;4.404;2023-05-07T04:01:56;19.90;59.10
7900;DHT22;3995;50.856;4.404;2023-05-07T04:04:24;19.90;59.00
7900;DHT22;3995;50.856;4.404;2023-05-07T04:06:50;19.90;59.00
7900;DHT22;3995;50.856;4.404;2023-05-07T04:09:18;19.90;59.00
7900;DHT22;3995;50.856;4.404;2023-05-07T04:11:45;19.90;58.90
7900;DHT22;3995;50.856;4.404;2023-05-07T04:14:12;19.90;58.80
7900;DHT22;3995;50.856;4.404;2023-05-07T04:16:41;19.90;58.70
7900;DHT22;3995;50.856;4.404;2023-05-07T04:19:08;19.90;58.60
7900;DHT22;3995;50.856;4.404;2023-05-07T04:21:35;19.90;58.60
7900;DHT22;3995;50.856;4.404;2023-05-07T04:24:03;19.90;58.60
7900;DHT22;3995;50.856;4.404;2023-05-07T04:26:31;19.90;58.70
7900;DHT22;3995;50.856;4.404;2023-05-07T04:28:58;19.90;58.70
7900;DHT22;3995;50.856;4.404;2023-05-07T04:31:25;19.90;58.70
7900;DHT22;3995;50.856;4.404;2023-05-07T04:33:54;19.90;58.70
7900;DHT22;3995;50.856;4.404;2023-05-07T04:36:21;19.90;58.70
7900;DHT22;3995;50.856;4.404;2023-05-07T04:38:48;19.90;58.70
7900;DHT22;3995;50.856;4.404;2023-05-07T04:41:15;19.90;59.30
7900;DHT22;3995;50.856;4.404;2023-05-07T04:43:43;19.90;58.70
7900;DHT22;3995;50.856;4.404;2023-05-07T04:46:10;19.90;58.70
7900;DHT22;3995;50.856;4.404;2023-05-07T04:48:37;19.90;58.80
7900;DHT22;3995;50.856;4.404;2023-05-07T04:51:05;19.90;58.80
7900;DHT22;3995;50.856;4.404;2023-05-07T04:53:33;19.90;59.00
7900;DHT22;3995;50.856;4.404;2023-05-07T04:56:00;19.90;58.90
7900;DHT22;3995;50.856;4.404;2023-05-07T04:58:27;19.90;58.80
7900;DHT22;3995;50.856;4.404;2023-05-07T05:00:57;19.90;58.90
7900;DHT22;3995;50.856;4.404;2023-05-07T05:03:24;19.90;58.90
7900;DHT22;3995;50.856;4.404;2023-05-07T05:05:51;19.90;59.10
7900;DHT22;3995;50.856;4.404;2023-05-07T05:08:20;20.00;59.20
7900;DHT22;3995;50.856;4.404;2023-05-07T05:10:47;20.00;59.50
7900;DHT22;3995;50.856;4.404;2023-05-07T05:13:15;19.90;59.60
7900;DHT22;3995;50.856;4.404;2023-05-07T05:15:43;19.90;59.70
7900;DHT22;3995;50.856;4.404;2023-05-07T05:18:11;19.90;59.70
7900;DHT22;3995;50.856;4.404;2023-05-07T05:20:38;19.90;59.80
7900;DHT22;3995;50.856;4.404;2023-05-07T05:23:05;19.90;59.90
7900;DHT22;3995;50.856;4.404;2023-05-07T05:25:34;19.90;60.00
7900;DHT22;3995;50.856;4.404;2023-05-07T05:28:03;20.00;60.20
7900;DHT22;3995;50.856;4.404;2023-05-07T05:30:30;19.90;60.20
7900;DHT22;3995;50.856;4.404;2023-05-07T05:32:57;20.00;60.30
7900;DHT22;3995;50.856;4.404;2023-05-07T05:35:24;19.90;60.20
7900;DHT22;3995;50.856;4.404;2023-05-07T05:37:52;19.90;60.20
7900;DHT22;3995;50.856;4.404;2023-05-07T05:40:19;20.00;60.30
7900;DHT22;3995;50.856;4.404;2023-05-07T05:42:48;19.90;60.20
7900;DHT22;3995;50.856;4.404;2023-05-07T05:45:15;20.00;60.50
7900;DHT22;3995;50.856;4.404;2023-05-07T05:47:43;20.00;60.60
7900;DHT22;3995;50.856;4.404;2023-05-07T05:50:10;20.00;60.70
7900;DHT22;3995;50.856;4.404;2023-05-07T05:52:37;20.00;60.70
7900;DHT22;3995;50.856;4.404;2023-05-07T05:55:05;20.00;60.60
7900;DHT22;3995;50.856;4.404;2023-05-07T05:57:33;20.00;60.30
7900;DHT22;3995;50.856;4.404;2023-05-07T06:00:02;20.00;60.20
7900;DHT22;3995;50.856;4.404;2023-05-07T06:02:29;20.00;60.10
7900;DHT22;3995;50.856;4.404;2023-05-07T06:04:56;20.00;59.90
7900;DHT22;3995;50.856;4.404;2023-05-07T06:07:24;20.00;59.90
7900;DHT22;3995;50.856;4.404;2023-05-07T06:09:51;20.00;59.60
7900;DHT22;3995;50.856;4.404;2023-05-07T06:12:18;20.00;59.20
7900;DHT22;3995;50.856;4.404;2023-05-07T06:14:45;20.00;59.00
7900;DHT22;3995;50.856;4.404;2023-05-07T06:17:14;20.00;58.80
7900;DHT22;3995;50.856;4.404;2023-05-07T06:19:42;20.00;58.60
7900;DHT22;3995;50.856;4.404;2023-05-07T06:22:09;19.90;58.60
7900;DHT22;3995;50.856;4.404;2023-05-07T06:24:36;20.00;58.70
7900;DHT22;3995;50.856;4.404;2023-05-07T06:27:04;20.00;58.80
7900;DHT22;3995;50.856;4.404;2023-05-07T06:29:31;20.00;58.90
7900;DHT22;3995;50.856;4.404;2023-05-07T06:32:06;20.00;59.10
7900;DHT22;3995;50.856;4.404;2023-05-07T06:34:35;20.00;59.20
7900;DHT22;3995;50.856;4.404;2023-05-07T06:37:02;20.00;59.40
7900;DHT22;3995;50.856;4.404;2023-05-07T06:39:29;20.00;59.60
7900;DHT22;3995;50.856;4.404;2023-05-07T06:41:56;20.00;59.80
7900;DHT22;3995;50.856;4.404;2023-05-07T06:44:24;20.00;60.00
7900;DHT22;3995;50.856;4.404;2023-05-07T06:46:51;20.00;60.10
7900;DHT22;3995;50.856;4.404;2023-05-07T06:49:18;20.00;60.30
7900;DHT22;3995;50.856;4.404;2023-05-07T06:51:47;20.00;60.50
7900;DHT22;3995;50.856;4.404;2023-05-07T06:54:14;19.90;60.60
7900;DHT22;3995;50.856;4.404;2023-05-07T06:56:41;19.90;60.90
7900;DHT22;3995;50.856;4.404;2023-05-07T06:59:08;20.00;61.20
7900;DHT22;3995;50.856;4.404;2023-05-07T07:01:35;20.00;61.40
7900;DHT22;3995;50.856;4.404;2023-05-07T07:04:03;20.00;61.50
7900;DHT22;3995;50.856;4.404;2023-05-07T07:06:30;19.90;61.70
7900;DHT22;3995;50.856;4.404;2023-05-07T07:08:59;19.90;62.00
7900;DHT22;3995;50.856;4.404;2023-05-07T07:11:26;19.90;62.30
7900;DHT22;3995;50.856;4.404;2023-05-07T07:13:53;19.90;62.50
7900;DHT22;3995;50.856;4.404;2023-05-07T07:16:21;19.90;62.90
7900;DHT22;3995;50.856;4.404;2023-05-07T07:18:48;19.90;63.00
7900;DHT22;3995;50.856;4.404;2023-05-07T07:21:15;19.90;63.20
7900;DHT22;3995;50.856;4.404;2023-05-07T07:23:42;19.90;63.40
7900;DHT22;3995;50.856;4.404;2023-05-07T07:26:11;19.90;63.70
7900;DHT22;3995;50.856;4.404;2023-05-07T07:28:45;19.90;64.00
7900;DHT22;3995;50.856;4.404;2023-05-07T07:31:12;19.90;64.10
7900;DHT22;3995;50.856;4.404;2023-05-07T07:33:40;19.80;64.30
7900;DHT22;3995;50.856;4.404;2023-05-07T07:36:08;19.90;64.60
7900;DHT22;3995;50.856;4.404;2023-05-07T07:38:35;19.80;64.70
7900;DHT22;3995;50.856;4.404;2023-05-07T07:41:02;19.80;64.90
7900;DHT22;3995;50.856;4.404;2023-05-07T07:43:31;19.80;65.00
7900;DHT22;3995;50.856;4.404;2023-05-07T07:46:13;19.80;65.00
7900;DHT22;3995;50.856;4.404;2023-05-07T07:48:40;19.80;65.20
7900;DHT22;3995;50.856;4.404;2023-05-07T07:51:07;19.80;65.40
7900;DHT22;3995;50.856;4.404;2023-05-07T07:53:35;19.80;65.50
7900;DHT22;3995;50.856;4.404;2023-05-07T07:56:02;19.80;65.60
7900;DHT22;3995;50.856;4.404;2023-05-07T07:58:31;19.80;65.80
7900;DHT22;3995;50.856;4.404;2023-05-07T08:00:58;19.80;65.80
7900;DHT22;3995;50.856;4.404;2023-05-07T08:03:25;19.80;65.90
7900;DHT22;3995;50.856;4.404;2023-05-07T08:05:53;19.80;66.00
7900;DHT22;3995;50.856;4.404;2023-05-07T08:08:20;19.80;66.10
7900;DHT22;3995;50.856;4.404;2023-05-07T08:10:50;19.80;66.10
7900;DHT22;3995;50.856;4.404;2023-05-07T08:13:18;19.90;66.30
7900;DHT22;3995;50.856;4.404;2023-05-07T08:15:46;19.90;66.30
7900;DHT22;3995;50.856;4.404;2023-05-07T08:18:13;19.90;66.70
7900;DHT22;3995;50.856;4.404;2023-05-07T08:20:41;19.90;66.80
7900;DHT22;3995;50.856;4.404;2023-05-07T08:23:08;19.90;66.70
7900;DHT22;3995;50.856;4.404;2023-05-07T08:25:36;19.90;66.70
7900;DHT22;3995;50.856;4.404;2023-05-07T08:28:03;19.90;66.90
7900;DHT22;3995;50.856;4.404;2023-05-07T08:30:31;19.90;67.00
7900;DHT22;3995;50.856;4.404;2023-05-07T08:33:00;19.90;66.90
7900;DHT22;3995;50.856;4.404;2023-05-07T08:35:27;19.90;66.90
7900;DHT22;3995;50.856;4.404;2023-05-07T08:37:54;19.90;67.10
7900;DHT22;3995;50.856;4.404;2023-05-07T08:40:25;19.90;67.20
7900;DHT22;3995;50.856;4.404;2023-05-07T08:42:56;19.90;67.40
7900;DHT22;3995;50.856;4.404;2023-05-07T08:45:24;19.90;67.20
7900;DHT22;3995;50.856;4.404;2023-05-07T08:47:58;19.90;67.20
7900;DHT22;3995;50.856;4.404;2023-05-07T08:50:25;19.90;67.30
7900;DHT22;3995;50.856;4.404;2023-05-07T08:52:53;19.90;67.60
7900;DHT22;3995;50.856;4.404;2023-05-07T08:55:22;19.90;67.70
7900;DHT22;3995;50.856;4.404;2023-05-07T08:57:50;19.90;67.90
7900;DHT22;3995;50.856;4.404;2023-05-07T09:00:18;20.00;68.20
7900;DHT22;3995;50.856;4.404;2023-05-07T09:02:45;20.00;68.00
7900;DHT22;3995;50.856;4.404;2023-05-07T09:05:14;20.00;68.00
7900;DHT22;3995;50.856;4.404;2023-05-07T09:07:42;20.00;67.90
7900;DHT22;3995;50.856;4.404;2023-05-07T09:10:09;20.00;68.00
7900;DHT22;3995;50.856;4.404;2023-05-07T09:12:37;20.10;68.10
7900;DHT22;3995;50.856;4.404;2023-05-07T09:15:06;20.00;68.10
7900;DHT22;3995;50.856;4.404;2023-05-07T09:17:33;20.00;68.20
7900;DHT22;3995;50.856;4.404;2023-05-07T09:20:02;20.00;68.10
7900;DHT22;3995;50.856;4.404;2023-05-07T09:22:33;20.10;68.40
7900;DHT22;3995;50.856;4.404;2023-05-07T09:25:00;20.10;68.50
7900;DHT22;3995;50.856;4.404;2023-05-07T09:27:28;20.10;68.40
7900;DHT22;3995;50.856;4.404;2023-05-07T09:29:55;20.10;68.30
7900;DHT22;3995;50.856;4.404;2023-05-07T09:32:23;20.10;68.60
7900;DHT22;3995;50.856;4.404;2023-05-07T09:34:52;20.10;68.70
7900;DHT22;3995;50.856;4.404;2023-05-07T09:37:20;20.10;68.80
7900;DHT22;3995;50.856;4.404;2023-05-07T09:39:49;20.10;68.70
7900;DHT22;3995;50.856;4.404;2023-05-07T09:42:23;20.20;69.10
7900;DHT22;3995;50.856;4.404;2023-05-07T09:44:52;20.20;68.90
7900;DHT22;3995;50.856;4.404;2023-05-07T09:47:20;20.20;69.10
7900;DHT22;3995;50.856;4.404;2023-05-07T09:49:59;20.20;69.00
7900;DHT22;3995;50.856;4.404;2023-05-07T09:52:31;20.20;69.20
7900;DHT22;3995;50.856;4.404;2023-05-07T09:55:02;20.20;69.20
7900;DHT22;3995;50.856;4.404;2023-05-07T09:57:29;20.20;69.00
7900;DHT22;3995;50.856;4.404;2023-05-07T09:59:58;20.20;69.30
7900;DHT22;3995;50.856;4.404;2023-05-07T10:02:29;20.20;69.70
7900;DHT22;3995;50.856;4.404;2023-05-07T10:04:57;20.20;69.70
7900;DHT22;3995;50.856;4.404;2023-05-07T10:07:26;20.30;69.70
7900;DHT22;3995;50.856;4.404;2023-05-07T10:09:55;20.20;69.50
7900;DHT22;3995;50.856;4.404;2023-05-07T10:12:23;20.30;69.80
7900;DHT22;3995;50.856;4.404;2023-05-07T10:14:52;20.30;69.90
7900;DHT22;3995;50.856;4.404;2023-05-07T10:17:20;20.30;69.80
7900;DHT22;3995;50.856;4.404;2023-05-07T10:19:48;20.30;69.90
7900;DHT22;3995;50.856;4.404;2023-05-07T10:22:16;20.30;69.60
7900;DHT22;3995;50.856;4.404;2023-05-07T10:24:47;20.30;69.50
7900;DHT22;3995;50.856;4.404;2023-05-07T10:27:16;20.30;69.70
7900;DHT22;3995;50.856;4.404;2023-05-07T10:29:53;20.30;69.70
7900;DHT22;3995;50.856;4.404;2023-05-07T10:32:34;20.30;69.90
7900;DHT22;3995;50.856;4.404;2023-05-07T10:35:04;20.30;70.00
7900;DHT22;3995;50.856;4.404;2023-05-07T10:37:36;20.30;70.00
7900;DHT22;3995;50.856;4.404;2023-05-07T10:40:04;20.30;70.70
7900;DHT22;3995;50.856;4.404;2023-05-07T10:42:32;20.30;70.00
7900;DHT22;3995;50.856;4.404;2023-05-07T10:45:13;20.30;69.80
7900;DHT22;3995;50.856;4.404;2023-05-07T10:48:08;20.40;70.00
7900;DHT22;3995;50.856;4.404;2023-05-07T10:50:36;20.40;70.20
7900;DHT22;3995;50.856;4.404;2023-05-07T10:53:24;20.30;70.50
7900;DHT22;3995;50.856;4.404;2023-05-07T10:56:24;20.40;70.40
7900;DHT22;3995;50.856;4.404;2023-05-07T10:58:51;20.40;70.50
7900;DHT22;3995;50.856;4.404;2023-05-07T11:01:51;20.30;70.80
7900;DHT22;3995;50.856;4.404;2023-05-07T11:04:19;20.40;70.50
7900;DHT22;3995;50.856;4.404;2023-05-07T11:10:06;20.40;70.40
7900;DHT22;3995;50.856;4.404;2023-05-07T11:12:52;20.30;70.50
7900;DHT22;3995;50.856;4.404;2023-05-07T11:15:40;20.40;70.10
7900;DHT22;3995;50.856;4.404;2023-05-07T11:18:10;20.40;69.90
7900;DHT22;3995;50.856;4.404;2023-05-07T11:20:46;20.40;70.10
7900;DHT22;3995;50.856;4.404;2023-05-07T11:23:55;20.40;69.70
7900;DHT22;3995;50.856;4.404;2023-05-07T11:26:26;20.40;69.40
7900;DHT22;3995;50.856;4.404;2023-05-07T11:28:54;20.40;69.30
7900;DHT22;3995;50.856;4.404;2023-05-07T11:31:24;20.40;69.10
7900;DHT22;3995;50.856;4.404;2023-05-07T11:33:54;20.40;69.20
7900;DHT22;3995;50.856;4.404;2023-05-07T11:36:22;20.40;69.20
7900;DHT22;3995;50.856;4.404;2023-05-07T11:38:50;20.40;69.10
7900;DHT22;3995;50.856;4.404;2023-05-07T11:41:17;20.40;69.20
7900;DHT22;3995;50.856;4.404;2023-05-07T11:43:56;20.40;69.30
7900;DHT22;3995;50.856;4.404;2023-05-07T11:46:24;20.50;69.10
7900;DHT22;3995;50.856;4.404;2023-05-07T11:48:54;20.50;69.20
7900;DHT22;3995;50.856;4.404;2023-05-07T11:51:22;20.50;69.60
7900;DHT22;3995;50.856;4.404;2023-05-07T11:53:50;20.50;69.50
7900;DHT22;3995;50.856;4.404;2023-05-07T11:56:18;20.50;69.90
7900;DHT22;3995;50.856;4.404;2023-05-07T11:58:46;20.60;69.90
7900;DHT22;3995;50.856;4.404;2023-05-07T12:01:14;20.50;69.70
7900;DHT22;3995;50.856;4.404;2023-05-07T12:03:48;20.60;69.60
7900;DHT22;3995;50.856;4.404;2023-05-07T12:06:17;20.60;69.30
7900;DHT22;3995;50.856;4.404;2023-05-07T12:08:45;20.60;69.20
7900;DHT22;3995;50.856;4.404;2023-05-07T12:11:14;20.60;69.20
7900;DHT22;3995;50.856;4.404;2023-05-07T12:13:43;20.60;69.30
7900;DHT22;3995;50.856;4.404;2023-05-07T12:16:11;20.60;69.30
7900;DHT22;3995;50.856;4.404;2023-05-07T12:18:38;20.60;69.50
7900;DHT22;3995;50.856;4.404;2023-05-07T12:21:06;20.60;69.50
7900;DHT22;3995;50.856;4.404;2023-05-07T12:23:35;20.70;69.40
7900;DHT22;3995;50.856;4.404;2023-05-07T12:26:03;20.70;69.00
7900;DHT22;3995;50.856;4.404;2023-05-07T12:28:36;20.70;68.90
7900;DHT22;3995;50.856;4.404;2023-05-07T12:31:04;20.70;68.90
7900;DHT22;3995;50.856;4.404;2023-05-07T12:33:32;20.70;69.10
7900;DHT22;3995;50.856;4.404;2023-05-07T12:36:05;20.80;69.00
7900;DHT22;3995;50.856;4.404;2023-05-07T12:38:38;20.80;69.30
7900;DHT22;3995;50.856;4.404;2023-05-07T12:41:07;20.80;68.90
7900;DHT22;3995;50.856;4.404;2023-05-07T12:43:34;20.80;68.50
7900;DHT22;3995;50.856;4.404;2023-05-07T12:46:05;20.80;68.60
7900;DHT22;3995;50.856;4.404;2023-05-07T12:48:32;20.80;69.20
7900;DHT22;3995;50.856;4.404;2023-05-07T12:51:00;20.80;69.30
7900;DHT22;3995;50.856;4.404;2023-05-07T12:53:29;20.80;69.40
7900;DHT22;3995;50.856;4.404;2023-05-07T12:55:58;20.80;69.40
7900;DHT22;3995;50.856;4.404;2023-05-07T12:58:27;20.80;69.30
7900;DHT22;3995;50.856;4.404;2023-05-07T13:00:56;20.90;69.10
7900;DHT22;3995;50.856;4.404;2023-05-07T13:03:26;20.80;68.60
7900;DHT22;3995;50.856;4.404;2023-05-07T13:05:54;20.80;68.40
7900;DHT22;3995;50.856;4.404;2023-05-07T13:08:30;20.80;68.30
7900;DHT22;3995;50.856;4.404;2023-05-07T13:11:00;20.90;68.30
7900;DHT22;3995;50.856;4.404;2023-05-07T13:13:29;20.80;68.30
7900;DHT22;3995;50.856;4.404;2023-05-07T13:15:56;20.80;68.20
7900;DHT22;3995;50.856;4.404;2023-05-07T13:18:24;20.80;68.20
7900;DHT22;3995;50.856;4.404;2023-05-07T13:20:51;20.90;68.30
7900;DHT22;3995;50.856;4.404;2023-05-07T13:23:19;20.80;68.40
7900;DHT22;3995;50.856;4.404;2023-05-07T13:25:47;20.80;68.50
7900;DHT22;3995;50.856;4.404;2023-05-07T13:28:16;20.80;68.70
7900;DHT22;3995;50.856;4.404;2023-05-07T13:30:43;20.90;68.60
7900;DHT22;3995;50.856;4.404;2023-05-07T13:33:11;20.90;68.50
7900;DHT22;3995;50.856;4.404;2023-05-07T13:35:38;20.90;68.40
7900;DHT22;3995;50.856;4.404;2023-05-07T13:38:05;20.90;68.40
7900;DHT22;3995;50.856;4.404;2023-05-07T13:40:32;20.90;68.30
7900;DHT22;3995;50.856;4.404;2023-05-07T13:43:00;20.90;68.20
7900;DHT22;3995;50.856;4.404;2023-05-07T13:45:29;20.90;67.90
7900;DHT22;3995;50.856;4.404;2023-05-07T13:47:56;20.90;67.70
7900;DHT22;3995;50.856;4.404;2023-05-07T13:50:24;20.80;67.50
7900;DHT22;3995;50.856;4.404;2023-05-07T13:52:52;20.80;67.40
7900;DHT22;3995;50.856;4.404;2023-05-07T13:55:20;20.80;67.50
7900;DHT22;3995;50.856;4.404;2023-05-07T13:57:54;20.80;67.60
7900;DHT22;3995;50.856;4.404;2023-05-07T14:00:21;20.90;67.80
7900;DHT22;3995;50.856;4.404;2023-05-07T14:02:50;20.80;67.70
7900;DHT22;3995;50.856;4.404;2023-05-07T14:05:18;20.80;67.80
7900;DHT22;3995;50.856;4.404;2023-05-07T14:07:45;20.80;67.90
7900;DHT22;3995;50.856;4.404;2023-05-07T14:10:13;20.90;68.00
7900;DHT22;3995;50.856;4.404;2023-05-07T14:12:40;20.80;67.90
7900;DHT22;3995;50.856;4.404;2023-05-07T14:15:08;20.80;67.90
7900;DHT22;3995;50.856;4.404;2023-05-07T14:17:36;20.80;68.00
7900;DHT22;3995;50.856;4.404;2023-05-07T14:20:06;20.80;68.10
7900;DHT22;3995;50.856;4.404;2023-05-07T14:22:33;20.80;68.10
7900;DHT22;3995;50.856;4.404;2023-05-07T14:25:00;20.80;68.10
7900;DHT22;3995;50.856;4.404;2023-05-07T14:27:27;20.80;68.00
7900;DHT22;3995;50.856;4.404;2023-05-07T14:29:55;20.80;67.90
7900;DHT22;3995;50.856;4.404;2023-05-07T14:32:22;20.80;68.00
7900;DHT22;3995;50.856;4.404;2023-05-07T14:34:50;20.80;68.00
7900;DHT22;3995;50.856;4.404;2023-05-07T14:37:19;20.80;68.30
7900;DHT22;3995;50.856;4.404;2023-05-07T14:39:46;20.80;68.30
7900;DHT22;3995;50.856;4.404;2023-05-07T14:42:13;20.90;68.50
7900;DHT22;3995;50.856;4.404;2023-05-07T14:44:40;20.90;68.30
7900;DHT22;3995;50.856;4.404;2023-05-07T14:47:08;20.80;68.30
7900;DHT22;3995;50.856;4.404;2023-05-07T14:49:35;20.90;68.40
7900;DHT22;3995;50.856;4.404;2023-05-07T14:52:03;20.90;68.20
7900;DHT22;3995;50.856;4.404;2023-05-07T14:54:35;20.90;68.10
7900;DHT22;3995;50.856;4.404;2023-05-07T14:57:04;20.90;67.90
7900;DHT22;3995;50.856;4.404;2023-05-07T14:59:32;20.90;67.90
7900;DHT22;3995;50.856;4.404;2023-05-07T15:01:59;20.90;68.20
7900;DHT22;3995;50.856;4.404;2023-05-07T15:04:26;20.90;68.10
7900;DHT22;3995;50.856;4.404;2023-05-07T15:06:53;20.90;67.80
7900;DHT22;3995;50.856;4.404;2023-05-07T15:09:21;20.90;67.70
7900;DHT22;3995;50.856;4.404;2023-05-07T15:11:50;20.90;67.60
7900;DHT22;3995;50.856;4.404;2023-05-07T15:14:18;20.90;67.50
7900;DHT22;3995;50.856;4.404;2023-05-07T15:16:47;20.90;67.40
7900;DHT22;3995;50.856;4.404;2023-05-07T15:19:15;20.90;67.40
7900;DHT22;3995;50.856;4.404;2023-05-07T15:21:42;20.90;67.60
7900;DHT22;3995;50.856;4.404;2023-05-07T15:24:09;20.90;67.70
7900;DHT22;3995;50.856;4.404;2023-05-07T15:26:37;20.90;67.70
7900;DHT22;3995;50.856;4.404;2023-05-07T15:29:05;20.90;67.90
7900;DHT22;3995;50.856;4.404;2023-05-07T15:31:35;20.90;68.00
7900;DHT22;3995;50.856;4.404;2023-05-07T15:34:03;20.90;67.90
7900;DHT22;3995;50.856;4.404;2023-05-07T15:36:30;20.90;67.90
7900;DHT22;3995;50.856;4.404;2023-05-07T15:38:58;20.90;68.10
7900;DHT22;3995;50.856;4.404;2023-05-07T15:41:25;20.90;68.20
7900;DHT22;3995;50.856;4.404;2023-05-07T15:43:52;20.90;68.40
7900;DHT22;3995;50.856;4.404;2023-05-07T15:46:23;20.90;68.40
7900;DHT22;3995;50.856;4.404;2023-05-07T15:48:50;20.90;68.40
7900;DHT22;3995;50.856;4.404;2023-05-07T15:51:17;20.90;68.40
7900;DHT22;3995;50.856;4.404;2023-05-07T15:53:45;20.90;68.30
7900;DHT22;3995;50.856;4.404;2023-05-07T15:56:12;20.90;68.20
7900;DHT22;3995;50.856;4.404;2023-05-07T15:58:40;20.90;68.20
7900;DHT22;3995;50.856;4.404;2023-05-07T16:01:07;20.90;68.20
7900;DHT22;3995;50.856;4.404;2023-05-07T16:03:36;20.90;68.30
7900;DHT22;3995;50.856;4.404;2023-05-07T16:06:04;20.90;68.30
7900;DHT22;3995;50.856;4.404;2023-05-07T16:08:32;20.90;68.20
7900;DHT22;3995;50.856;4.404;2023-05-07T16:10:59;20.90;68.00
7900;DHT22;3995;50.856;4.404;2023-05-07T16:13:26;20.80;67.90